createdAt,value
2019-05-09T00:00:05.749Z,5.42
2019-05-09T00:05:10.682Z,5.10
2019-05-09T00:10:14.698Z,5.83
2019-05-09T00:15:18.387Z,5.30
2019-05-09T00:20:43.655Z,5.42
2019-05-09T00:25:48.051Z,5.42
2019-05-09T00:31:03.456Z,5.47
2019-05-09T00:36:07.518Z,5.42
2019-05-09T00:41:10.814Z,6.05
2019-05-09T00:46:23.624Z,5.58
2019-05-09T00:51:27.883Z,5.35
2019-05-09T00:56:33.129Z,5.55
2019-05-09T01:01:38.788Z,5.40
2019-05-09T01:06:43.399Z,5.33
2019-05-09T01:11:48.509Z,5.55
2019-05-09T01:16:53.458Z,5.97
2019-05-09T01:21:57.313Z,5.92
2019-05-09T01:27:00.873Z,5.78
2019-05-09T01:32:11.154Z,5.45
2019-05-09T01:37:14.954Z,5.92
2019-05-09T01:42:18.451Z,5.92
2019-05-09T01:47:23.545Z,5.83
2019-05-09T01:52:27.274Z,5.95
2019-05-09T01:57:30.687Z,5.92
2019-05-09T02:02:34.530Z,5.45
2019-05-09T02:07:39.152Z,5.92
2019-05-09T02:12:43.102Z,5.72
2019-05-09T02:18:05.220Z,6.00
2019-05-09T02:23:09.278Z,5.97
2019-05-09T02:28:14.154Z,6.47
2019-05-09T02:33:18.089Z,5.50
2019-05-09T02:38:21.539Z,6.28
2019-05-09T02:43:24.954Z,6.08
2019-05-09T02:48:29.345Z,5.45
2019-05-09T02:53:33.082Z,6.40
2019-05-09T02:58:48.532Z,5.85
2019-05-09T03:03:51.556Z,6.75
2019-05-09T03:08:54.946Z,5.75
2019-05-09T03:13:58.813Z,5.62
2019-05-09T03:19:03.451Z,5.50
2019-05-09T03:24:09.777Z,6.65
2019-05-09T03:29:30.709Z,5.58
2019-05-09T03:34:34.702Z,5.78
2019-05-09T03:39:38.777Z,6.60
2019-05-09T03:44:43.792Z,6.85
2019-05-09T03:50:08.202Z,5.90
2019-05-09T03:55:17.978Z,6.05
2019-05-09T04:00:22.426Z,6.00
2019-05-09T04:05:27.314Z,5.70
2019-05-09T04:10:30.793Z,5.60
2019-05-09T04:15:35.177Z,6.90
2019-05-09T04:20:38.969Z,5.53
2019-05-09T04:25:54.368Z,5.60
2019-05-09T04:30:59.193Z,6.28
2019-05-09T04:36:02.601Z,6.05
2019-05-09T04:41:07.431Z,6.37
2019-05-09T04:46:12.888Z,6.28
2019-05-09T04:51:18.024Z,5.72
2019-05-09T04:56:27.885Z,5.80
2019-05-09T05:01:58.088Z,6.10
2019-05-09T05:07:01.770Z,6.03
2019-05-09T05:12:05.345Z,6.10
2019-05-09T05:17:11.417Z,6.22
2019-05-09T05:22:21.475Z,6.40
2019-05-09T05:27:24.914Z,5.97
2019-05-09T05:32:38.569Z,6.47
2019-05-09T05:37:42.141Z,6.78
2019-05-09T05:42:47.791Z,6.72
2019-05-09T05:47:59.517Z,6.37
2019-05-09T05:53:03.421Z,6.62
2019-05-09T05:58:08.569Z,7.40
2019-05-09T06:03:12.241Z,6.70
2019-05-09T06:08:17.458Z,6.92
2019-05-09T06:13:21.318Z,6.50
2019-05-09T06:18:24.886Z,6.87
2019-05-09T06:23:28.375Z,6.60
2019-05-09T06:28:31.875Z,6.35
2019-05-09T06:33:35.641Z,6.62
2019-05-09T06:38:40.135Z,7.70
2019-05-09T06:43:45.469Z,7.70
2019-05-09T06:48:49.297Z,7.45
2019-05-09T06:53:53.795Z,7.75
2019-05-09T06:58:58.391Z,8.10
2019-05-09T07:04:09.186Z,8.28
2019-05-09T07:09:17.653Z,9.25
2019-05-09T07:14:31.902Z,8.65
2019-05-09T07:19:33.333Z,8.10
2019-05-09T07:25:06.886Z,8.28
2019-05-09T07:30:17.953Z,8.38
2019-05-09T07:35:21.679Z,8.13
2019-05-09T07:40:30.128Z,7.85
2019-05-09T07:45:31.644Z,7.95
2019-05-09T07:50:38.664Z,8.28
2019-05-09T07:55:41.442Z,8.93
2019-05-09T08:00:45.283Z,7.15
2019-05-09T08:05:48.632Z,8.98
2019-05-09T08:10:52.866Z,8.78
2019-05-09T08:15:58.368Z,8.73
2019-05-09T08:21:01.912Z,8.80
2019-05-09T08:26:05.609Z,10.13
2019-05-09T08:31:09.451Z,8.93
2019-05-09T08:36:14.332Z,9.55
2019-05-09T08:41:18.595Z,9.35
2019-05-09T08:46:23.641Z,10.28
2019-05-09T08:51:56.068Z,10.72
2019-05-09T08:56:51.049Z,10.00
2019-05-09T09:02:12.251Z,10.15
2019-05-09T09:07:00.864Z,10.93
2019-05-09T09:12:21.994Z,10.48
2019-05-09T09:17:10.224Z,9.50
2019-05-09T09:22:13.551Z,11.70
2019-05-09T09:27:18.334Z,10.80
2019-05-09T09:32:21.773Z,11.38
2019-05-09T09:37:29.597Z,12.73
2019-05-09T09:42:32.106Z,10.72
2019-05-09T09:47:39.567Z,10.43
2019-05-09T09:52:41.649Z,10.45
2019-05-09T09:57:45.337Z,10.38
2019-05-09T10:02:48.873Z,11.25
2019-05-09T10:07:52.263Z,10.43
2019-05-09T10:13:03.827Z,10.25
2019-05-09T10:18:18.286Z,9.03
2019-05-09T10:23:23.707Z,9.48
2019-05-09T10:28:29.991Z,9.25
2019-05-09T10:33:33.483Z,9.13
2019-05-09T10:38:38.613Z,7.95
2019-05-09T10:44:02.247Z,9.25
2019-05-09T10:49:08.277Z,7.72
2019-05-09T10:54:12.829Z,7.60
2019-05-09T10:59:18.297Z,7.85
2019-05-09T11:04:21.553Z,7.85
2019-05-09T11:09:24.866Z,7.03
2019-05-09T11:14:36.562Z,8.05
2019-05-09T11:19:33.810Z,9.30
2019-05-09T11:24:45.711Z,7.90
2019-05-09T11:29:42.487Z,7.95
2019-05-09T11:34:48.428Z,8.05
2019-05-09T11:39:51.485Z,8.13
2019-05-09T11:44:54.784Z,7.95
2019-05-09T11:49:59.690Z,8.03
2019-05-09T11:55:03.323Z,8.18
2019-05-09T12:00:09.943Z,6.15
2019-05-09T12:05:13.740Z,6.10
2019-05-09T12:10:18.701Z,5.60
2019-05-09T12:15:23.731Z,5.33
2019-05-09T12:20:28.377Z,5.53
2019-05-09T12:25:32.136Z,6.17
2019-05-09T12:30:37.811Z,5.92
2019-05-09T12:35:40.879Z,5.20
2019-05-09T12:40:44.175Z,4.97
2019-05-09T12:45:47.975Z,5.37
2019-05-09T12:50:51.482Z,5.75
2019-05-09T12:56:00.571Z,5.40
2019-05-09T13:01:04.236Z,5.35
2019-05-09T13:06:08.379Z,5.60
2019-05-09T13:14:24.206Z,6.05
2019-05-09T13:19:33.812Z,5.40
2019-05-09T13:24:38.069Z,5.80
2019-05-09T13:29:42.063Z,6.15
2019-05-09T13:34:48.427Z,6.40
2019-05-09T13:39:51.806Z,6.53
2019-05-09T13:44:55.524Z,7.05
2019-05-09T13:49:59.228Z,7.20
2019-05-09T13:55:04.230Z,8.08
2019-05-09T14:00:08.991Z,7.87
2019-05-09T14:05:12.630Z,7.80
2019-05-09T14:10:17.813Z,7.42
2019-05-09T14:15:21.562Z,8.63
2019-05-09T14:20:27.178Z,8.38
2019-05-09T14:25:30.628Z,8.95
2019-05-09T14:30:33.951Z,8.88
2019-05-09T14:35:38.714Z,9.90
2019-05-09T14:40:42.365Z,9.85
2019-05-09T14:45:48.283Z,9.18
2019-05-09T14:50:51.313Z,9.43
2019-05-09T14:55:55.270Z,8.85
2019-05-09T15:01:00.919Z,8.93
2019-05-09T15:06:04.785Z,8.80
2019-05-09T15:11:10.010Z,9.55
2019-05-09T15:16:13.546Z,10.98
2019-05-09T15:21:19.208Z,21.95
2019-05-09T15:26:23.097Z,9.60
2019-05-09T15:31:28.646Z,8.83
2019-05-09T15:36:31.609Z,9.03
2019-05-09T15:41:35.185Z,8.40
2019-05-09T15:46:48.607Z,8.33
2019-05-09T15:51:52.056Z,8.83
2019-05-09T15:56:57.879Z,8.85
2019-05-09T16:02:00.793Z,8.60
2019-05-09T16:07:04.157Z,8.63
2019-05-09T16:12:07.856Z,9.40
2019-05-09T16:17:11.317Z,10.45
2019-05-09T16:22:14.879Z,11.05
2019-05-09T16:27:19.720Z,11.75
2019-05-09T16:32:23.726Z,11.03
2019-05-09T16:37:28.387Z,10.88
2019-05-09T16:42:31.921Z,12.70
2019-05-09T16:47:35.197Z,11.55
2019-05-09T16:52:43.524Z,11.78
2019-05-09T16:57:46.118Z,11.63
2019-05-09T17:02:49.538Z,10.72
2019-05-09T17:07:53.014Z,10.35
2019-05-09T17:12:58.257Z,11.63
2019-05-09T17:18:01.945Z,11.38
2019-05-09T17:23:15.016Z,11.88
2019-05-09T17:28:17.941Z,12.68
2019-05-09T17:33:21.440Z,12.37
2019-05-09T17:38:27.652Z,13.85
2019-05-09T17:43:30.854Z,13.63
2019-05-09T17:48:34.125Z,15.18
2019-05-09T17:53:38.538Z,13.72
2019-05-09T17:58:42.086Z,14.53
2019-05-09T18:03:47.948Z,15.03
2019-05-09T18:08:50.865Z,15.60
2019-05-09T18:13:54.522Z,15.48
2019-05-09T18:18:59.964Z,16.93
2019-05-09T18:24:03.659Z,17.15
2019-05-09T18:29:07.202Z,17.35
2019-05-09T18:34:10.707Z,18.60
2019-05-09T18:39:14.169Z,18.77
2019-05-09T18:44:18.581Z,19.98
2019-05-09T18:49:22.945Z,18.80
2019-05-09T18:54:26.499Z,20.70
2019-05-09T18:59:31.029Z,21.45
2019-05-09T19:04:34.445Z,20.45
2019-05-09T19:09:37.858Z,22.48
2019-05-09T19:14:43.780Z,22.50
2019-05-09T19:19:58.072Z,22.67
2019-05-09T19:25:01.553Z,23.50
2019-05-09T19:30:05.419Z,23.30
2019-05-09T19:35:08.760Z,25.17
2019-05-09T19:40:12.806Z,26.07
2019-05-09T19:45:16.407Z,25.30
2019-05-09T19:50:19.827Z,24.27
2019-05-09T19:55:23.532Z,24.65
2019-05-09T20:00:27.096Z,24.98
2019-05-09T20:05:30.840Z,23.55
2019-05-09T20:11:05.460Z,25.37
2019-05-09T20:16:09.942Z,25.32
2019-05-09T20:21:13.426Z,24.87
2019-05-09T20:26:18.279Z,23.30
2019-05-09T20:31:21.969Z,24.77
2019-05-09T20:36:26.127Z,24.07
2019-05-09T20:41:30.327Z,23.15
2019-05-09T20:46:35.117Z,22.42
2019-05-09T20:51:38.843Z,21.20
2019-05-09T20:56:42.980Z,22.22
2019-05-09T21:01:47.124Z,22.48
2019-05-09T21:06:51.012Z,21.35
2019-05-09T21:11:54.660Z,22.37
2019-05-09T21:16:58.246Z,24.02
2019-05-09T21:22:02.033Z,25.27
2019-05-09T21:27:06.483Z,25.92
2019-05-09T21:32:10.742Z,26.85
2019-05-09T21:37:14.198Z,28.98
2019-05-09T21:42:18.247Z,26.35
2019-05-09T21:47:22.274Z,27.75
2019-05-09T21:52:26.042Z,30.72
2019-05-09T21:57:32.390Z,30.82
2019-05-09T22:02:36.125Z,32.23
2019-05-09T22:07:40.116Z,34.45
2019-05-09T22:12:43.780Z,34.00
2019-05-09T22:17:47.295Z,35.10
2019-05-09T22:22:50.798Z,33.28
2019-05-09T22:27:54.223Z,34.15
2019-05-09T22:32:57.596Z,33.53
2019-05-09T22:38:00.892Z,37.42
2019-05-09T22:43:04.201Z,38.33
2019-05-09T22:48:07.580Z,38.83
2019-05-09T22:53:10.913Z,39.90
2019-05-09T22:58:14.760Z,42.33
2019-05-09T23:03:18.947Z,43.63
2019-05-09T23:08:22.301Z,41.63
2019-05-09T23:13:25.737Z,42.95
2019-05-09T23:18:29.096Z,44.65
2019-05-09T23:23:39.857Z,46.00
2019-05-09T23:28:44.399Z,45.67
2019-05-09T23:33:47.846Z,43.05
2019-05-09T23:39:11.286Z,44.80
2019-05-09T23:44:15.043Z,47.25
2019-05-09T23:49:18.537Z,46.70
2019-05-09T23:54:48.307Z,47.75
